createdAt,value
2018-09-21T00:00:39.033Z,8.23
2018-09-21T00:03:13.988Z,9.03
2018-09-21T00:05:49.061Z,9.03
2018-09-21T00:08:23.857Z,8.97
2018-09-21T00:10:58.469Z,9.10
2018-09-21T00:13:33.017Z,8.60
2018-09-21T00:16:07.729Z,9.00
2018-09-21T00:18:42.683Z,9.20
2018-09-21T00:21:17.550Z,7.77
2018-09-21T00:23:51.599Z,9.07
2018-09-21T00:26:26.273Z,8.20
2018-09-21T00:29:01.176Z,8.73
2018-09-21T00:31:35.589Z,8.40
2018-09-21T00:34:10.695Z,8.77
2018-09-21T00:36:46.054Z,8.00
2018-09-21T00:39:20.263Z,9.17
2018-09-21T00:41:54.936Z,9.53
2018-09-21T00:44:30.025Z,10.00
2018-09-21T00:47:04.880Z,9.80
2018-09-21T00:49:39.689Z,8.50
2018-09-21T00:52:14.195Z,8.60
2018-09-21T00:54:49.153Z,10.00
2018-09-21T00:57:24.166Z,7.53
2018-09-21T00:59:58.741Z,9.40
2018-09-21T01:02:33.420Z,9.20
2018-09-21T01:05:07.901Z,8.77
2018-09-21T01:07:42.973Z,7.90
2018-09-21T01:10:18.064Z,7.40
2018-09-21T01:12:52.275Z,8.63
2018-09-21T01:15:27.041Z,10.83
2018-09-21T01:18:01.976Z,9.00
2018-09-21T01:20:37.010Z,8.30
2018-09-21T01:23:12.077Z,8.83
2018-09-21T01:25:46.517Z,9.03
2018-09-21T01:28:21.184Z,8.83
2018-09-21T01:30:55.897Z,8.37
2018-09-21T01:33:31.155Z,8.97
2018-09-21T01:36:05.395Z,8.27
2018-09-21T01:38:39.955Z,7.97
2018-09-21T01:41:14.572Z,8.50
2018-09-21T01:43:49.113Z,9.33
2018-09-21T01:46:24.045Z,8.10
2018-09-21T01:48:58.264Z,8.10
2018-09-21T01:51:32.910Z,8.33
2018-09-21T01:54:08.158Z,9.30
2018-09-21T01:56:42.473Z,8.70
2018-09-21T01:59:16.958Z,7.57
2018-09-21T02:01:51.532Z,8.73
2018-09-21T02:04:32.092Z,7.90
2018-09-21T02:07:09.249Z,8.60
2018-09-21T02:09:44.097Z,7.80
2018-09-21T02:12:18.244Z,8.67
2018-09-21T02:14:53.314Z,8.77
2018-09-21T02:17:27.654Z,8.43
2018-09-21T02:20:02.153Z,9.27
2018-09-21T02:22:37.686Z,8.90
2018-09-21T02:25:12.733Z,8.90
2018-09-21T02:27:47.345Z,7.50
2018-09-21T02:30:22.031Z,8.70
2018-09-21T02:32:56.665Z,7.73
2018-09-21T02:35:31.342Z,8.30
2018-09-21T02:38:06.110Z,8.00
2018-09-21T02:40:40.825Z,7.60
2018-09-21T02:43:15.605Z,8.10
2018-09-21T02:45:49.970Z,7.50
2018-09-21T02:48:24.781Z,7.37
2018-09-21T02:50:59.212Z,7.40
2018-09-21T02:53:33.853Z,7.87
2018-09-21T02:56:08.503Z,7.90
2018-09-21T02:58:43.582Z,8.97
2018-09-21T03:01:18.029Z,8.07
2018-09-21T03:03:52.532Z,8.43
2018-09-21T03:06:27.632Z,8.77
2018-09-21T03:09:01.848Z,8.23
2018-09-21T03:11:36.763Z,8.13
2018-09-21T03:14:11.432Z,7.07
2018-09-21T03:16:45.940Z,7.50
2018-09-21T03:19:20.548Z,8.07
2018-09-21T03:21:55.136Z,7.57
2018-09-21T03:24:30.127Z,8.00
2018-09-21T03:27:04.981Z,8.23
2018-09-21T03:29:39.766Z,8.70
2018-09-21T03:32:14.320Z,8.47
2018-09-21T03:34:48.573Z,7.80
2018-09-21T03:37:23.237Z,8.10
2018-09-21T03:39:57.804Z,7.80
2018-09-21T03:42:32.712Z,7.90
2018-09-21T03:45:07.040Z,8.30
2018-09-21T03:47:41.724Z,7.63
2018-09-21T03:50:16.407Z,8.40
2018-09-21T03:52:51.096Z,8.13
2018-09-21T03:55:25.971Z,6.83
2018-09-21T03:58:00.438Z,7.97
2018-09-21T04:00:35.194Z,6.60
2018-09-21T04:03:10.189Z,7.97
2018-09-21T04:05:44.509Z,8.17
2018-09-21T04:08:19.087Z,7.07
2018-09-21T04:10:53.517Z,7.17
2018-09-21T04:13:28.190Z,8.43
2018-09-21T04:16:02.729Z,8.60
2018-09-21T04:18:37.296Z,9.00
2018-09-21T04:21:11.818Z,8.13
2018-09-21T04:23:46.701Z,7.80
2018-09-21T04:26:21.436Z,8.43
2018-09-21T04:28:56.121Z,7.00
2018-09-21T04:31:30.982Z,7.77
2018-09-21T04:34:05.654Z,8.20
2018-09-21T04:36:40.485Z,7.77
2018-09-21T04:39:15.049Z,8.70
2018-09-21T04:41:49.773Z,9.13
2018-09-21T04:44:24.483Z,8.77
2018-09-21T04:46:58.919Z,7.53
2018-09-21T04:49:33.544Z,7.00
2018-09-21T04:52:08.174Z,7.70
2018-09-21T04:54:42.773Z,8.07
2018-09-21T04:57:17.385Z,8.17
2018-09-21T04:59:51.937Z,8.90
2018-09-21T05:02:26.814Z,8.10
2018-09-21T05:05:01.533Z,8.03
2018-09-21T05:07:36.016Z,7.63
2018-09-21T05:10:10.560Z,7.97
2018-09-21T05:12:46.034Z,9.07
2018-09-21T05:15:21.021Z,9.03
2018-09-21T05:17:55.532Z,7.63
2018-09-21T05:20:30.880Z,7.50
2018-09-21T05:23:05.806Z,8.67
2018-09-21T05:25:40.348Z,8.20
2018-09-21T05:28:15.220Z,7.50
2018-09-21T05:30:49.945Z,7.47
2018-09-21T05:33:25.015Z,7.70
2018-09-21T05:35:59.629Z,7.23
2018-09-21T05:38:34.349Z,7.43
2018-09-21T05:41:09.373Z,6.70
2018-09-21T05:43:44.028Z,6.13
2018-09-21T05:46:19.046Z,7.33
2018-09-21T05:48:53.605Z,6.87
2018-09-21T05:51:28.215Z,6.60
2018-09-21T05:54:02.977Z,7.40
2018-09-21T05:56:38.090Z,6.80
2018-09-21T05:59:13.184Z,6.13
2018-09-21T06:01:47.801Z,7.30
2018-09-21T06:04:22.468Z,6.50
2018-09-21T06:06:56.939Z,6.73
2018-09-21T06:09:31.663Z,6.67
2018-09-21T06:12:06.590Z,7.17
2018-09-21T06:14:41.014Z,6.37
2018-09-21T06:17:15.672Z,5.50
2018-09-21T06:19:50.474Z,5.70
2018-09-21T06:22:24.864Z,4.77
2018-09-21T06:24:59.510Z,6.00
2018-09-21T06:27:34.044Z,5.30
2018-09-21T06:30:09.460Z,5.40
2018-09-21T06:32:44.274Z,5.90
2018-09-21T06:35:19.034Z,5.80
2018-09-21T06:37:53.769Z,5.83
2018-09-21T06:49:52.968Z,4.97
2018-09-21T06:52:27.513Z,4.60
2018-09-21T06:55:07.457Z,5.13
2018-09-21T06:57:42.533Z,4.70
2018-09-21T07:00:17.586Z,5.07
2018-09-21T07:02:51.885Z,3.67
2018-09-21T07:05:26.809Z,4.40
2018-09-21T07:08:01.448Z,4.23
2018-09-21T07:10:36.082Z,3.90
2018-09-21T07:13:10.800Z,4.13
2018-09-21T07:15:45.994Z,3.73
2018-09-21T07:18:20.273Z,4.27
2018-09-21T07:20:55.281Z,3.80
2018-09-21T07:23:29.584Z,3.50
2018-09-21T07:26:04.549Z,3.77
2018-09-21T07:28:39.394Z,4.10
2018-09-21T07:31:14.628Z,3.90
2018-09-21T07:33:48.846Z,3.90
2018-09-21T07:36:24.026Z,3.73
2018-09-21T07:38:58.862Z,3.83
2018-09-21T07:41:33.789Z,3.77
2018-09-21T07:44:08.573Z,3.90
2018-09-21T07:46:43.421Z,3.80
2018-09-21T07:49:18.245Z,3.87
2018-09-21T07:51:53.072Z,4.00
2018-09-21T07:54:28.118Z,3.10
2018-09-21T07:57:02.718Z,3.57
2018-09-21T07:59:37.766Z,3.30
2018-09-21T08:02:12.221Z,3.30
2018-09-21T08:04:47.243Z,2.83
2018-09-21T08:07:22.101Z,3.40
2018-09-21T08:09:56.907Z,3.47
2018-09-21T08:12:31.672Z,3.60
2018-09-21T08:15:06.741Z,3.23
2018-09-21T08:17:41.394Z,4.17
2018-09-21T08:20:16.463Z,4.40
2018-09-21T08:22:50.905Z,3.43
2018-09-21T08:25:25.811Z,3.30
2018-09-21T08:28:00.187Z,3.37
2018-09-21T08:30:35.409Z,3.20
2018-09-21T08:33:10.286Z,3.70
2018-09-21T08:35:45.226Z,3.93
2018-09-21T08:38:20.238Z,3.27
2018-09-21T08:40:55.163Z,3.80
2018-09-21T08:43:29.462Z,3.63
2018-09-21T08:46:05.033Z,3.47
2018-09-21T08:48:39.782Z,3.10
2018-09-21T08:51:14.160Z,3.90
2018-09-21T08:53:49.221Z,3.17
2018-09-21T08:56:24.058Z,3.50
2018-09-21T08:58:58.835Z,3.27
2018-09-21T09:01:33.469Z,3.43
2018-09-21T09:04:08.301Z,3.73
2018-09-21T09:06:42.616Z,3.00
2018-09-21T09:09:17.313Z,3.20
2018-09-21T09:11:51.890Z,3.70
2018-09-21T09:14:26.542Z,3.60
2018-09-21T09:17:01.467Z,4.13
2018-09-21T09:19:36.070Z,4.10
2018-09-21T09:22:11.257Z,3.50
2018-09-21T09:24:45.795Z,3.17
2018-09-21T09:27:20.575Z,3.60
2018-09-21T09:29:55.605Z,3.80
2018-09-21T09:32:30.253Z,3.40
2018-09-21T09:35:05.450Z,3.40
2018-09-21T09:37:40.243Z,4.17
2018-09-21T09:40:14.831Z,3.83
2018-09-21T09:42:49.037Z,3.90
2018-09-21T09:45:23.989Z,3.63
2018-09-21T09:47:59.213Z,4.00
2018-09-21T09:50:34.187Z,3.80
2018-09-21T09:53:08.703Z,3.50
2018-09-21T09:55:43.711Z,4.13
2018-09-21T09:58:18.080Z,3.80
2018-09-21T10:00:53.644Z,3.30
2018-09-21T10:03:28.015Z,3.73
2018-09-21T10:06:02.287Z,4.20
2018-09-21T10:08:36.514Z,3.77
2018-09-21T10:11:10.935Z,3.73
2018-09-21T10:13:45.906Z,3.60
2018-09-21T10:16:20.254Z,3.83
2018-09-21T10:18:54.918Z,3.53
2018-09-21T10:21:29.055Z,3.40
2018-09-21T10:24:03.636Z,3.40
2018-09-21T10:26:38.447Z,3.80
2018-09-21T10:29:12.869Z,3.43
2018-09-21T10:31:47.513Z,3.83
2018-09-21T10:34:22.314Z,3.83
2018-09-21T10:36:56.959Z,4.30
2018-09-21T10:39:31.608Z,4.00
2018-09-21T10:42:06.351Z,4.90
2018-09-21T10:44:41.260Z,4.20
2018-09-21T10:47:17.309Z,3.40
2018-09-21T10:49:51.599Z,3.83
2018-09-21T10:52:26.652Z,4.13
2018-09-21T10:55:01.034Z,3.37
2018-09-21T10:57:36.034Z,4.57
2018-09-21T11:00:11.387Z,4.27
2018-09-21T11:02:45.450Z,4.30
2018-09-21T11:05:19.712Z,4.20
2018-09-21T11:07:54.269Z,4.17
2018-09-21T11:10:28.918Z,3.87
2018-09-21T11:13:03.120Z,3.70
2018-09-21T11:15:38.166Z,3.87
2018-09-21T11:18:13.172Z,4.10
2018-09-21T11:20:47.877Z,4.53
2018-09-21T11:23:22.692Z,4.30
2018-09-21T11:25:57.557Z,4.30
2018-09-21T11:28:32.164Z,4.40
2018-09-21T11:31:06.854Z,3.83
2018-09-21T11:33:41.446Z,4.37
2018-09-21T11:36:16.317Z,4.23
2018-09-21T11:38:50.926Z,5.60
2018-09-21T11:41:25.776Z,4.10
2018-09-21T11:44:00.277Z,4.27
2018-09-21T11:46:35.195Z,4.33
2018-09-21T11:49:10.160Z,3.77
2018-09-21T11:51:44.717Z,4.77
2018-09-21T11:54:19.529Z,5.10
2018-09-21T11:56:54.649Z,4.80
2018-09-21T11:59:29.656Z,5.10
2018-09-21T12:02:04.314Z,4.40
2018-09-21T12:04:39.242Z,4.70
2018-09-21T12:07:14.117Z,5.77
2018-09-21T12:09:49.175Z,4.67
2018-09-21T12:12:24.059Z,5.00
2018-09-21T12:14:59.145Z,4.67
2018-09-21T12:17:33.902Z,6.00
2018-09-21T12:20:08.982Z,4.87
2018-09-21T12:22:44.198Z,4.80
2018-09-21T12:25:19.131Z,4.90
2018-09-21T12:27:54.005Z,5.30
2018-09-21T12:30:28.314Z,4.90
2018-09-21T12:33:03.372Z,5.00
2018-09-21T12:35:38.279Z,4.20
2018-09-21T12:38:12.909Z,5.57
2018-09-21T12:40:47.641Z,4.93
2018-09-21T12:43:22.221Z,4.97
2018-09-21T12:45:56.821Z,4.43
2018-09-21T12:48:31.565Z,5.00
2018-09-21T12:51:06.353Z,4.50
2018-09-21T12:53:41.354Z,3.87
2018-09-21T12:56:15.628Z,4.30
2018-09-21T12:58:50.543Z,4.30
2018-09-21T13:01:25.045Z,4.10
2018-09-21T13:03:59.603Z,3.80
2018-09-21T13:06:34.508Z,4.57
2018-09-21T13:09:09.423Z,3.80
2018-09-21T13:11:44.494Z,4.30
2018-09-21T13:14:19.547Z,4.17
2018-09-21T13:16:54.530Z,4.20
2018-09-21T13:19:28.661Z,4.30
2018-09-21T13:22:05.317Z,3.80
2018-09-21T13:24:40.077Z,4.03
2018-09-21T13:27:14.412Z,4.80
2018-09-21T13:29:49.100Z,5.33
2018-09-21T13:32:23.473Z,4.33
2018-09-21T13:34:58.111Z,4.03
2018-09-21T13:37:32.306Z,3.57
2018-09-21T13:40:07.302Z,3.30
2018-09-21T13:42:42.174Z,3.27
2018-09-21T13:45:16.912Z,4.07
2018-09-21T13:47:52.457Z,3.83
2018-09-21T13:50:26.770Z,3.27
2018-09-21T13:53:01.475Z,3.10
2018-09-21T13:55:36.110Z,3.30
2018-09-21T13:58:10.947Z,4.07
2018-09-21T14:00:45.663Z,3.10
2018-09-21T14:03:20.560Z,3.93
2018-09-21T14:05:55.154Z,4.00
2018-09-21T14:08:30.085Z,3.60
2018-09-21T14:11:04.989Z,3.70
2018-09-21T14:13:39.677Z,3.57
2018-09-21T14:16:14.044Z,4.30
2018-09-21T14:18:49.269Z,3.60
2018-09-21T14:21:24.332Z,3.77
2018-09-21T14:23:58.933Z,4.07
2018-09-21T14:26:33.778Z,3.53
2018-09-21T14:29:08.909Z,3.60
2018-09-21T14:31:43.980Z,4.20
2018-09-21T14:34:18.830Z,4.03
2018-09-21T14:36:53.582Z,4.07
2018-09-21T14:39:27.664Z,4.40
2018-09-21T14:42:01.941Z,4.20
2018-09-21T14:44:37.612Z,3.83
2018-09-21T14:47:12.332Z,3.93
2018-09-21T14:49:47.177Z,3.80
2018-09-21T14:52:21.786Z,3.50
2018-09-21T14:54:56.321Z,4.23
2018-09-21T14:57:31.238Z,4.10
2018-09-21T15:00:06.256Z,3.73
2018-09-21T15:02:40.446Z,3.90
2018-09-21T15:05:15.086Z,3.63
2018-09-21T15:07:49.746Z,5.43
2018-09-21T15:10:24.568Z,3.97
2018-09-21T15:12:59.287Z,5.87
2018-09-21T15:15:34.007Z,4.50
2018-09-21T15:18:08.454Z,4.07
2018-09-21T15:20:43.185Z,5.30
2018-09-21T15:23:17.649Z,4.13
2018-09-21T15:25:52.434Z,4.30
2018-09-21T15:28:27.130Z,4.33
2018-09-21T15:31:02.113Z,4.27
2018-09-21T15:33:36.923Z,5.07
2018-09-21T15:36:11.259Z,4.43
2018-09-21T15:38:46.418Z,5.07
2018-09-21T15:41:21.420Z,4.53
2018-09-21T15:43:56.527Z,4.07
2018-09-21T15:46:31.562Z,3.70
2018-09-21T15:49:06.678Z,5.10
2018-09-21T15:51:41.118Z,4.60
2018-09-21T15:54:15.852Z,5.00
2018-09-21T15:56:51.057Z,5.30
2018-09-21T15:59:26.225Z,4.90
2018-09-21T16:02:00.865Z,4.30
2018-09-21T16:04:35.222Z,6.73
2018-09-21T16:07:09.800Z,7.30
2018-09-21T16:09:44.292Z,5.57
2018-09-21T16:12:18.989Z,5.77
2018-09-21T16:14:53.650Z,5.03
2018-09-21T16:17:28.541Z,5.57
2018-09-21T16:20:02.977Z,5.90
2018-09-21T16:22:37.534Z,4.60
2018-09-21T16:25:12.974Z,6.20
2018-09-21T16:27:47.876Z,5.60
2018-09-21T16:30:22.738Z,5.70
2018-09-21T16:32:57.816Z,4.80
2018-09-21T16:35:32.458Z,5.70
2018-09-21T16:38:07.715Z,4.80
2018-09-21T16:40:42.396Z,5.80
2018-09-21T16:43:17.294Z,4.43
2018-09-21T16:45:52.374Z,4.73
2018-09-21T16:48:27.158Z,5.23
2018-09-21T16:51:02.326Z,6.23
2018-09-21T16:53:38.635Z,6.20
2018-09-21T16:56:14.121Z,5.40
2018-09-21T16:58:48.879Z,6.47
2018-09-21T17:01:24.090Z,5.70
2018-09-21T17:03:59.041Z,5.17
2018-09-21T17:06:34.616Z,5.13
2018-09-21T17:09:11.412Z,5.17
2018-09-21T17:11:46.971Z,5.03
2018-09-21T17:14:22.231Z,4.90
2018-09-21T17:16:56.782Z,6.07
2018-09-21T17:19:31.841Z,4.70
2018-09-21T17:22:06.373Z,5.13
2018-09-21T17:24:41.397Z,4.77
2018-09-21T17:27:15.805Z,5.80
2018-09-21T17:29:50.653Z,5.67
2018-09-21T17:32:24.928Z,8.90
2018-09-21T17:34:59.891Z,6.13
2018-09-21T17:37:35.069Z,7.60
2018-09-21T17:40:09.555Z,8.03
2018-09-21T17:42:44.066Z,5.67
2018-09-21T17:45:18.723Z,10.00
2018-09-21T17:47:53.689Z,6.27
2018-09-21T17:50:28.413Z,5.20
2018-09-21T17:53:03.244Z,5.30
2018-09-21T17:55:38.672Z,4.80
2018-09-21T17:58:14.026Z,5.50
2018-09-21T18:00:48.567Z,5.73
2018-09-21T18:03:23.622Z,5.70
2018-09-21T18:05:59.008Z,5.00
2018-09-21T18:08:33.668Z,5.60
2018-09-21T18:11:08.644Z,5.30
2018-09-21T18:13:43.681Z,5.43
2018-09-21T18:16:25.412Z,6.13
2018-09-21T18:19:00.301Z,5.13
2018-09-21T18:21:34.994Z,6.40
2018-09-21T18:24:10.486Z,4.30
2018-09-21T18:26:45.031Z,4.90
2018-09-21T18:29:20.141Z,5.37
2018-09-21T18:31:55.269Z,5.50
2018-09-21T18:34:29.757Z,6.00
2018-09-21T18:37:04.649Z,4.93
2018-09-21T18:39:39.242Z,5.00
2018-09-21T18:42:13.891Z,4.97
2018-09-21T18:44:48.697Z,4.90
2018-09-21T18:47:23.206Z,4.70
2018-09-21T18:49:58.047Z,5.47
2018-09-21T18:52:32.644Z,5.17
2018-09-21T18:55:07.494Z,5.27
2018-09-21T18:57:42.278Z,4.50
2018-09-21T19:00:17.158Z,4.13
2018-09-21T19:02:51.847Z,5.10
2018-09-21T19:05:29.246Z,5.43
2018-09-21T19:08:04.121Z,5.87
2018-09-21T19:10:39.201Z,6.27
2018-09-21T19:13:13.505Z,5.20
2018-09-21T19:15:48.663Z,5.67
2018-09-21T19:18:24.019Z,4.00
2018-09-21T19:20:59.081Z,3.87
2018-09-21T19:23:33.804Z,2.83
2018-09-21T19:26:14.997Z,3.33
2018-09-21T19:28:50.194Z,1.97
2018-09-21T19:31:25.789Z,2.53
2018-09-21T19:34:00.354Z,2.40
2018-09-21T19:36:34.673Z,1.80
2018-09-21T19:39:10.733Z,1.40
2018-09-21T19:41:45.447Z,1.60
2018-09-21T19:44:21.037Z,1.47
2018-09-21T19:46:56.169Z,1.83
2018-09-21T19:49:31.874Z,1.77
2018-09-21T19:52:06.763Z,1.70
2018-09-21T19:54:41.636Z,1.80
2018-09-21T19:57:16.181Z,1.90
2018-09-21T19:59:51.137Z,1.53
2018-09-21T20:02:25.479Z,1.80
2018-09-21T20:05:00.456Z,1.70
2018-09-21T20:07:35.184Z,1.80
2018-09-21T20:10:10.129Z,1.50
2018-09-21T20:12:44.840Z,2.27
2018-09-21T20:15:19.385Z,2.27
2018-09-21T20:17:53.714Z,1.80
2018-09-21T20:20:28.808Z,1.90
2018-09-21T20:23:03.878Z,2.00
2018-09-21T20:25:39.138Z,1.97
2018-09-21T20:28:14.071Z,1.73
2018-09-21T20:30:54.850Z,2.60
2018-09-21T20:33:30.933Z,1.50
2018-09-21T20:36:05.986Z,1.90
2018-09-21T20:38:40.245Z,1.70
2018-09-21T20:41:15.087Z,1.77
2018-09-21T20:43:49.919Z,2.17
2018-09-21T20:46:24.246Z,2.07
2018-09-21T20:48:59.251Z,2.00
2018-09-21T20:51:33.527Z,2.90
2018-09-21T20:54:08.321Z,2.30
2018-09-21T20:56:46.227Z,2.23
2018-09-21T20:59:21.251Z,1.80
2018-09-21T21:01:56.116Z,2.60
2018-09-21T21:04:30.691Z,2.60
2018-09-21T21:07:05.845Z,2.00
2018-09-21T21:09:40.889Z,2.50
2018-09-21T21:12:15.685Z,2.00
2018-09-21T21:14:50.445Z,2.40
2018-09-21T21:17:26.220Z,2.13
2018-09-21T21:20:01.455Z,2.37
2018-09-21T21:22:35.857Z,2.83
2018-09-21T21:25:10.605Z,2.67
2018-09-21T21:27:45.411Z,2.00
2018-09-21T21:30:20.226Z,2.30
2018-09-21T21:32:55.358Z,2.20
2018-09-21T21:35:30.331Z,3.37
2018-09-21T21:38:05.525Z,2.47
2018-09-21T21:40:40.548Z,2.07
2018-09-21T21:43:15.183Z,2.20
2018-09-21T21:45:50.342Z,2.37
2018-09-21T21:48:25.447Z,2.70
2018-09-21T21:51:00.673Z,2.60
2018-09-21T21:53:34.882Z,2.50
2018-09-21T21:56:09.340Z,2.80
2018-09-21T21:58:44.408Z,2.67
2018-09-21T22:01:30.485Z,2.90
2018-09-21T22:04:05.735Z,2.37
2018-09-21T22:06:41.059Z,2.73
2018-09-21T22:09:15.518Z,2.93
2018-09-21T22:11:55.902Z,3.77
2018-09-21T22:14:30.940Z,3.43
2018-09-21T22:17:06.065Z,2.83
2018-09-21T22:19:40.345Z,3.70
2018-09-21T22:22:15.147Z,3.07
2018-09-21T22:24:49.807Z,2.40
2018-09-21T22:27:24.434Z,2.83
2018-09-21T22:29:59.245Z,2.53
2018-09-21T22:32:33.761Z,2.40
2018-09-21T22:35:08.457Z,3.00
2018-09-21T22:37:43.109Z,2.60
2018-09-21T22:40:17.825Z,3.80
2018-09-21T22:42:52.356Z,3.07
2018-09-21T22:45:27.418Z,2.80
2018-09-21T22:48:02.328Z,2.50
2018-09-21T22:50:37.606Z,2.87
2018-09-21T22:53:12.481Z,2.90
2018-09-21T22:55:47.431Z,2.50
2018-09-21T22:58:22.375Z,2.33
2018-09-21T23:00:56.680Z,2.47
2018-09-21T23:03:32.181Z,2.57
2018-09-21T23:06:07.647Z,3.07
2018-09-21T23:08:41.788Z,2.17
2018-09-21T23:11:16.832Z,2.40
2018-09-21T23:13:51.689Z,2.13
2018-09-21T23:16:26.126Z,2.70
2018-09-21T23:19:00.333Z,2.77
2018-09-21T23:21:35.184Z,2.10
2018-09-21T23:24:10.194Z,2.50
2018-09-21T23:26:44.727Z,2.13
2018-09-21T23:29:19.330Z,2.63
2018-09-21T23:31:54.122Z,2.03
2018-09-21T23:34:29.064Z,2.27
2018-09-21T23:37:03.929Z,2.30
2018-09-21T23:39:38.578Z,2.03
2018-09-21T23:42:13.200Z,1.77
2018-09-21T23:44:48.030Z,2.00
2018-09-21T23:47:23.263Z,2.40
2018-09-21T23:49:58.193Z,3.00
2018-09-21T23:52:33.417Z,2.70
2018-09-21T23:55:07.999Z,2.30
2018-09-21T23:57:42.861Z,1.83
